createdAt,value
2019-01-27T13:49:49.263Z,20.49
2019-01-27T13:50:49.226Z,20.40
2019-01-27T13:51:49.175Z,20.21
2019-01-27T13:52:49.149Z,20.14
2019-01-27T13:53:49.102Z,20.10
2019-01-27T13:54:49.027Z,20.04
2019-01-27T13:55:49.032Z,20.03
2019-01-27T13:56:48.982Z,20.12
2019-01-27T13:57:48.937Z,20.27
2019-01-27T13:58:48.861Z,20.27
2019-01-27T13:59:48.808Z,20.26
2019-01-27T14:00:48.739Z,20.36
2019-01-27T14:01:49.543Z,20.52
2019-01-27T14:02:48.620Z,20.42
2019-01-27T14:03:48.543Z,20.53
2019-01-27T14:04:48.702Z,20.42
2019-01-27T14:05:48.391Z,20.52
2019-01-27T14:06:48.321Z,20.63
2019-01-27T14:07:48.289Z,20.55
2019-01-27T14:08:48.193Z,20.53
2019-01-27T14:09:48.112Z,20.63
2019-01-27T14:10:48.044Z,20.50
2019-01-27T14:11:47.975Z,20.58
2019-01-27T14:12:44.343Z,20.60
2019-01-27T14:13:44.331Z,20.58
2019-01-27T14:14:44.329Z,20.64
2019-01-27T14:15:44.310Z,20.60
2019-01-27T14:16:44.297Z,20.60
2019-01-27T14:17:44.301Z,20.77
2019-01-27T14:18:44.276Z,20.75
2019-01-27T14:19:44.271Z,20.82
2019-01-27T14:20:44.254Z,20.74
2019-01-27T14:21:44.237Z,20.73
2019-01-27T14:22:44.232Z,20.74
2019-01-27T14:23:44.276Z,20.70
2019-01-27T14:24:44.177Z,20.77
2019-01-27T14:25:44.162Z,20.77
2019-01-27T14:26:44.140Z,20.73
2019-01-27T14:27:44.130Z,20.75
2019-01-27T14:28:44.104Z,20.73
2019-01-27T14:29:44.083Z,20.78
2019-01-27T14:30:44.051Z,20.75
2019-01-27T14:32:44.608Z,20.75
2019-01-27T14:33:45.133Z,20.74
2019-01-27T14:34:45.838Z,20.80
2019-01-27T14:36:32.156Z,20.73
2019-01-27T14:37:32.783Z,20.77
2019-01-27T14:38:33.439Z,20.78
2019-01-27T14:39:34.080Z,20.80
2019-01-27T14:40:34.758Z,20.75
2019-01-27T14:41:35.394Z,20.78
2019-01-27T14:42:36.027Z,20.77
2019-01-27T14:43:36.673Z,20.78
2019-01-27T14:44:37.302Z,20.75
2019-01-27T14:45:38.007Z,20.86
2019-01-27T14:47:25.059Z,20.82
2019-01-27T14:48:26.129Z,20.71
2019-01-27T14:49:26.642Z,20.83
2019-01-27T14:51:04.866Z,20.83
2019-01-27T14:52:05.650Z,20.83
2019-01-27T14:53:06.577Z,20.82
2019-01-27T14:54:07.750Z,20.75
2019-01-27T14:55:08.089Z,20.63
2019-01-27T14:56:08.416Z,20.59
2019-01-27T14:57:08.761Z,20.50
2019-01-27T14:58:09.225Z,20.50
2019-01-27T14:59:09.628Z,20.56
2019-01-27T15:00:10.762Z,20.52
2019-01-27T15:01:11.574Z,20.52
2019-01-27T15:02:12.152Z,20.50
2019-01-27T15:03:12.792Z,20.39
2019-01-27T15:04:14.066Z,20.40
2019-01-27T15:05:14.671Z,20.42
2019-01-27T15:06:15.088Z,20.40
2019-01-27T15:07:15.583Z,20.40
2019-01-27T15:08:16.184Z,20.34
2019-01-27T15:09:16.907Z,20.37
2019-01-27T15:10:17.316Z,20.26
2019-01-27T15:11:17.679Z,20.34
2019-01-27T15:12:18.018Z,20.29
2019-01-27T15:13:18.836Z,20.30
2019-01-27T15:14:19.137Z,20.32
2019-01-27T15:15:19.490Z,20.32
2019-01-27T15:16:19.808Z,20.22
2019-01-27T15:17:20.231Z,20.26
2019-01-27T15:18:20.678Z,20.26
2019-01-27T15:19:21.024Z,20.24
2019-01-27T15:20:21.725Z,20.26
2019-01-27T15:21:22.084Z,20.26
2019-01-27T15:22:22.423Z,20.19
2019-01-27T15:23:22.850Z,20.18
2019-01-27T15:24:23.209Z,20.22
2019-01-27T15:25:23.529Z,20.19
2019-01-27T15:26:23.844Z,20.19
2019-01-27T15:27:24.197Z,20.21
2019-01-27T15:28:24.840Z,20.19
2019-01-27T15:29:25.192Z,20.14
2019-01-27T15:30:25.506Z,20.18
2019-01-27T15:31:25.911Z,20.15
2019-01-27T15:32:26.233Z,20.15
2019-01-27T15:33:26.597Z,20.12
2019-01-27T15:34:26.935Z,20.19
2019-01-27T15:35:27.284Z,20.12
2019-01-27T15:36:27.606Z,20.10
2019-01-27T15:37:28.058Z,20.07
2019-01-27T15:38:28.564Z,20.12
2019-01-27T15:39:29.375Z,20.17
2019-01-27T15:40:30.403Z,20.10
2019-01-27T15:43:48.913Z,20.24
2019-01-27T15:44:49.587Z,20.22
2019-01-27T15:45:50.205Z,20.26
2019-01-27T15:46:50.825Z,20.29
2019-01-27T15:47:51.510Z,20.33
2019-01-27T15:48:52.130Z,20.26
2019-01-27T15:49:52.733Z,20.27
2019-01-27T15:50:53.332Z,20.29
2019-01-27T15:51:53.927Z,20.37
2019-01-27T15:52:54.535Z,20.39
2019-01-27T15:55:21.073Z,20.42
2019-01-27T15:56:22.412Z,20.37
2019-01-27T15:57:23.099Z,20.39
2019-01-27T15:58:23.710Z,20.39
2019-01-27T15:59:24.718Z,20.42
2019-01-27T16:00:25.362Z,20.46
2019-01-27T16:01:25.963Z,20.40
2019-01-27T16:02:26.632Z,20.36
2019-01-27T16:03:27.247Z,20.42
2019-01-27T16:04:27.869Z,20.48
2019-01-27T16:05:28.460Z,20.52
2019-01-27T16:06:29.058Z,20.53
2019-01-27T16:07:29.648Z,20.59
2019-01-27T16:08:30.252Z,20.58
2019-01-27T16:09:30.863Z,20.56
2019-01-27T16:10:31.450Z,20.70
2019-01-27T16:11:32.043Z,20.68
2019-01-27T16:12:32.641Z,20.80
2019-01-27T16:13:33.240Z,20.68
2019-01-27T16:14:33.850Z,20.71
2019-01-27T16:15:34.435Z,20.73
2019-01-27T16:16:35.019Z,20.68
2019-01-27T16:17:35.604Z,20.53
2019-01-27T16:18:36.201Z,20.52
2019-01-27T16:19:36.802Z,20.49
2019-01-27T16:20:37.400Z,20.42
2019-01-27T16:21:37.982Z,20.49
2019-01-27T16:22:38.575Z,20.39
2019-01-27T16:23:39.182Z,20.39
2019-01-27T16:24:39.841Z,20.42
2019-01-27T16:25:41.495Z,20.44
2019-01-27T16:26:42.188Z,20.56
2019-01-27T16:27:42.798Z,20.52
2019-01-27T16:28:43.397Z,20.50
2019-01-27T16:29:44.006Z,20.58
2019-01-27T16:30:45.000Z,20.55
2019-01-27T16:31:45.745Z,20.39
2019-01-27T16:32:46.384Z,20.42
2019-01-27T16:33:47.019Z,20.44
2019-01-27T16:34:47.659Z,20.39
2019-01-27T16:35:48.281Z,20.49
2019-01-27T16:36:48.883Z,20.53
2019-01-27T16:37:49.469Z,20.53
2019-01-27T16:38:50.068Z,20.53
2019-01-27T16:39:50.732Z,20.60
2019-01-27T16:40:51.332Z,20.78
2019-01-27T16:41:51.917Z,20.77
2019-01-27T16:42:52.523Z,20.77
2019-01-27T16:43:53.122Z,20.82
2019-01-27T16:44:53.779Z,20.82
2019-01-27T16:45:54.383Z,20.77
2019-01-27T16:46:54.987Z,20.74
2019-01-27T16:47:55.594Z,20.75
2019-01-27T16:48:56.194Z,20.85
2019-01-27T16:49:56.953Z,21.00
2019-01-27T16:50:57.564Z,21.13
2019-01-27T16:51:58.160Z,21.22
2019-01-27T16:52:58.759Z,21.26
2019-01-27T16:53:59.352Z,21.20
2019-01-27T16:54:59.966Z,21.22
2019-01-27T16:56:00.565Z,21.28
2019-01-27T16:57:01.154Z,21.38
2019-01-27T16:58:01.739Z,21.35
2019-01-27T16:59:02.349Z,21.40
2019-01-27T17:00:02.976Z,21.35
2019-01-27T17:01:48.274Z,21.33
2019-01-27T17:02:48.883Z,21.03
2019-01-27T17:05:03.197Z,20.53
2019-01-27T17:06:03.839Z,20.46
2019-01-27T17:07:04.466Z,20.44
2019-01-27T17:08:05.080Z,20.27
2019-01-27T17:09:05.707Z,20.32
2019-01-27T17:10:06.392Z,20.29
2019-01-27T17:11:07.106Z,20.36
2019-01-27T17:11:47.762Z,20.24
2019-01-27T17:12:53.238Z,20.22
2019-01-27T17:13:53.278Z,20.22
2019-01-27T17:14:53.257Z,20.24
2019-01-27T17:15:53.242Z,20.17
2019-01-27T17:16:53.194Z,20.24
2019-01-27T17:17:53.166Z,20.27
2019-01-27T17:18:53.135Z,20.19
2019-01-27T17:19:53.101Z,20.33
2019-01-27T17:20:53.066Z,20.46
2019-01-27T17:21:53.000Z,20.49
2019-01-27T17:22:52.953Z,20.52
2019-01-27T17:23:52.890Z,20.49
2019-01-27T17:24:52.826Z,20.56
2019-01-27T17:25:53.723Z,20.50
2019-01-27T17:26:52.718Z,20.49
2019-01-27T17:27:52.653Z,20.42
2019-01-27T17:28:52.601Z,20.44
2019-01-27T17:29:52.530Z,20.48
2019-01-27T17:30:52.495Z,20.42
2019-01-27T17:31:52.445Z,20.46
2019-01-27T17:32:52.409Z,20.44
2019-01-27T17:33:52.321Z,20.42
2019-01-27T17:34:52.269Z,20.39
2019-01-27T17:35:52.233Z,20.36
2019-01-27T17:36:52.155Z,20.32
2019-01-27T17:37:52.101Z,20.34
2019-01-27T17:38:52.051Z,20.34
2019-01-27T17:39:51.999Z,20.39
2019-01-27T17:40:51.974Z,20.33
2019-01-27T17:41:51.930Z,20.24
2019-01-27T17:42:51.869Z,20.32
2019-01-27T17:43:51.803Z,20.19
2019-01-27T17:44:51.752Z,20.22
2019-01-27T17:45:51.723Z,20.18
2019-01-27T17:46:51.695Z,20.27
2019-01-27T17:47:51.596Z,20.26
2019-01-27T17:48:51.546Z,20.21
2019-01-27T17:49:51.496Z,20.21
2019-01-27T17:50:51.448Z,20.18
2019-01-27T17:51:51.403Z,20.15
2019-01-27T17:52:51.351Z,20.27
2019-01-27T17:53:51.297Z,20.18
2019-01-27T17:54:51.244Z,20.19
2019-01-27T17:55:51.194Z,20.21
2019-01-27T17:56:51.172Z,20.14
2019-01-27T17:57:51.101Z,20.22
2019-01-27T17:58:54.268Z,20.19
2019-01-27T17:59:51.005Z,20.22
2019-01-27T18:00:50.967Z,20.21
2019-01-27T18:01:50.934Z,20.39
2019-01-27T18:02:50.874Z,20.60
2019-01-27T18:38:05.016Z,21.28
2019-01-27T18:39:05.705Z,21.14
2019-01-27T18:40:06.379Z,21.00
2019-01-27T18:41:07.007Z,21.04
2019-01-27T18:42:07.628Z,20.98
2019-01-27T18:43:08.248Z,20.88
2019-01-27T18:44:08.891Z,20.90
2019-01-27T18:45:09.535Z,20.95
2019-01-27T18:46:10.158Z,20.92
2019-01-27T18:47:10.777Z,20.88
2019-01-27T18:48:11.394Z,20.85
2019-01-27T18:49:12.011Z,20.83
2019-01-27T18:50:12.665Z,20.78
2019-01-27T18:51:13.281Z,20.80
2019-01-27T18:52:13.889Z,20.78
2019-01-27T18:53:14.510Z,20.78
2019-01-27T18:54:15.164Z,20.80
2019-01-27T18:55:15.846Z,20.77
2019-01-27T18:56:57.114Z,21.03
2019-01-27T18:57:57.799Z,21.15
2019-01-27T18:59:27.340Z,21.19
2019-01-27T19:00:28.024Z,21.15
2019-01-27T19:02:35.563Z,21.19
2019-01-27T19:03:36.254Z,21.04
2019-01-27T19:04:36.977Z,21.08
2019-01-27T19:06:04.942Z,21.10
2019-01-27T19:07:05.937Z,21.08
2019-01-27T19:08:06.576Z,21.07
2019-01-27T19:09:07.177Z,20.90
2019-01-27T19:10:07.870Z,20.93
2019-01-27T19:11:08.462Z,20.96
2019-01-27T19:12:09.055Z,20.92
2019-01-27T19:13:09.641Z,20.88
2019-01-27T19:14:10.240Z,20.90
2019-01-27T19:15:10.846Z,20.86
2019-01-27T19:16:11.441Z,20.90
2019-01-27T19:17:12.046Z,20.96
2019-01-27T19:18:12.661Z,21.00
2019-01-27T19:19:13.255Z,20.93
2019-01-27T19:20:13.884Z,20.93
2019-01-27T19:21:14.486Z,20.89
2019-01-27T19:22:15.096Z,20.82
2019-01-27T19:23:15.708Z,20.86
2019-01-27T19:24:16.304Z,20.85
2019-01-27T19:25:16.930Z,20.74
2019-01-27T19:26:17.526Z,20.82
2019-01-27T19:27:18.144Z,20.80
2019-01-27T19:28:18.738Z,20.75
2019-01-27T19:29:19.334Z,20.78
2019-01-27T19:31:44.934Z,20.78
2019-01-27T19:32:46.194Z,20.71
